Time;durP1;ratioP1;P1;durP2;ratioP2;P2;SDS_P1;SDS_P2;PMS_P1;PMS_P2;Temp;Humidity;BMP_temperature;BMP_pressure;BME280_temperature;BME280_humidity;BME280_pressure;Samples;Min_cycle;Max_cycle;Signal;HPM_P1;HPM_P2
2023/03/29 00:00:13;;;;;;;3.77;1.87;;;;;;;;;;5116005;28;20540;-72
2023/03/29 00:02:41;;;;;;;4.73;2.30;;;;;;;;;;5116160;28;20451;-72
2023/03/29 00:05:09;;;;;;;5.88;2.40;;;;;;;;;;5115953;28;20483;-72
2023/03/29 00:07:36;;;;;;;13.07;2.60;;;;;;;;;;5114691;28;20201;-72
2023/03/29 00:10:13;;;;;;;6.70;2.33;;;;;;;;;;5115370;28;20455;-72
2023/03/29 00:12:41;;;;;;;9.45;2.70;;;;;;;;;;5115401;28;20586;-72
2023/03/29 00:15:09;;;;;;;5.03;2.83;;;;;;;;;;5116858;28;20296;-72
2023/03/29 00:17:37;;;;;;;5.38;2.70;;;;;;;;;;5116524;28;20820;-72
2023/03/29 00:20:12;;;;;;;5.87;2.83;;;;;;;;;;5116471;28;20201;-71
2023/03/29 00:22:40;;;;;;;5.37;2.27;;;;;;;;;;5115200;28;20494;-72
2023/03/29 00:25:08;;;;;;;8.47;2.53;;;;;;;;;;5115807;28;20714;-72
2023/03/29 00:27:36;;;;;;;4.50;2.13;;;;;;;;;;5116783;28;20812;-72
2023/03/29 00:30:14;;;;;;;6.67;2.67;;;;;;;;;;5120131;28;20438;-72
2023/03/29 00:32:41;;;;;;;8.80;2.93;;;;;;;;;;5120526;28;20454;-72
2023/03/29 00:35:09;;;;;;;6.80;2.90;;;;;;;;;;5120387;28;20829;-73
2023/03/29 00:37:38;;;;;;;5.03;2.60;;;;;;;;;;5121103;28;20954;-72
2023/03/29 00:40:14;;;;;;;5.10;2.08;;;;;;;;;;5120440;28;20451;-72
2023/03/29 00:42:45;;;;;;;7.77;2.30;;;;;;;;;;5120916;28;20213;-72
2023/03/29 00:45:19;;;;;;;9.93;2.40;;;;;;;;;;5119450;28;20455;-72
2023/03/29 00:47:49;;;;;;;7.13;3.30;;;;;;;;;;5120228;28;20461;-72
2023/03/29 00:50:21;;;;;;;6.07;2.67;;;;;;;;;;5120542;28;20520;-72
2023/03/29 00:52:49;;;;;;;5.30;3.67;;;;;;;;;;5121163;28;20458;-72
2023/03/29 00:55:21;;;;;;;11.10;2.87;;;;;;;;;;5121306;28;20489;-72
2023/03/29 00:57:49;;;;;;;6.87;4.17;;;;;;;;;;5109431;28;20849;-72
2023/03/29 01:00:19;;;;;;;5.10;2.73;;;;;;;;;;5101807;28;20443;-73
2023/03/29 01:02:53;;;;;;;6.00;3.00;;;;;;;;;;5100863;28;20519;-72
2023/03/29 01:05:23;;;;;;;8.53;2.80;;;;;;;;;;5100682;28;20451;-72
2023/03/29 01:07:57;;;;;;;7.20;3.07;;;;;;;;;;5101115;28;20462;-72
2023/03/29 01:10:28;;;;;;;8.33;2.97;;;;;;;;;;5101464;28;20465;-72
2023/03/29 01:12:59;;;;;;;6.53;2.67;;;;;;;;;;5098961;28;20451;-71
2023/03/29 01:15:27;;;;;;;5.90;2.60;;;;;;;;;;5099594;28;20870;-72
2023/03/29 01:17:57;;;;;;;10.00;3.43;;;;;;;;;;5098400;28;20544;-71
2023/03/29 01:20:29;;;;;;;9.33;3.03;;;;;;;;;;5098608;28;20475;-72
2023/03/29 01:23:14;;;;;;;7.57;3.00;;;;;;;;;;5096375;28;20456;-71
2023/03/29 01:25:49;;;;;;;6.47;2.33;;;;;;;;;;5096541;28;20520;-72
2023/03/29 01:28:21;;;;;;;5.10;2.92;;;;;;;;;;5097763;28;20912;-73
2023/03/29 01:30:54;;;;;;;4.25;2.40;;;;;;;;;;5097634;28;20567;-72
2023/03/29 01:33:23;;;;;;;6.43;2.73;;;;;;;;;;5098257;28;20244;-72
2023/03/29 01:35:56;;;;;;;10.57;3.30;;;;;;;;;;5097879;28;20475;-72
2023/03/29 01:38:24;;;;;;;6.00;2.23;;;;;;;;;;5097436;28;20891;-72
2023/03/29 01:40:55;;;;;;;5.32;2.67;;;;;;;;;;5097647;28;20558;-72
2023/03/29 01:43:27;;;;;;;5.37;2.77;;;;;;;;;;5098724;28;20206;-72
2023/03/29 01:45:58;;;;;;;13.00;3.07;;;;;;;;;;5097724;28;20459;-72
2023/03/29 01:48:28;;;;;;;8.90;2.77;;;;;;;;;;5096969;28;20542;-72
2023/03/29 01:50:59;;;;;;;10.63;3.20;;;;;;;;;;5097644;28;20731;-72
2023/03/29 01:53:31;;;;;;;4.70;2.77;;;;;;;;;;5097532;28;20448;-72
2023/03/29 01:56:03;;;;;;;6.50;2.80;;;;;;;;;;5097074;28;20467;-72
2023/03/29 01:58:33;;;;;;;5.53;2.63;;;;;;;;;;5096684;28;20487;-72
2023/03/29 02:01:04;;;;;;;4.10;2.07;;;;;;;;;;5098389;28;20216;-73
2023/03/29 02:03:32;;;;;;;5.93;2.27;;;;;;;;;;5097470;28;20861;-73
2023/03/29 02:06:04;;;;;;;4.13;2.30;;;;;;;;;;5097026;28;20555;-73
2023/03/29 02:08:31;;;;;;;5.60;3.15;;;;;;;;;;5097334;28;20448;-72
2023/03/29 02:10:58;;;;;;;9.10;3.00;;;;;;;;;;5096365;28;20234;-72
2023/03/29 02:13:27;;;;;;;5.10;2.50;;;;;;;;;;5096769;28;20238;-72
2023/03/29 02:15:58;;;;;;;9.13;2.83;;;;;;;;;;5096980;28;20459;-72
2023/03/29 02:18:27;;;;;;;8.17;2.73;;;;;;;;;;5096776;28;20218;-72
2023/03/29 02:20:56;;;;;;;11.80;3.40;;;;;;;;;;5097338;28;20428;-72
2023/03/29 02:23:27;;;;;;;7.97;2.57;;;;;;;;;;5096344;28;20554;-73
2023/03/29 02:25:55;;;;;;;5.30;2.37;;;;;;;;;;5096356;28;20500;-72
2023/03/29 02:28:23;;;;;;;5.40;2.77;;;;;;;;;;5096629;28;20863;-72
2023/03/29 02:30:53;;;;;;;4.83;2.40;;;;;;;;;;5097187;28;20855;-72
2023/03/29 02:33:25;;;;;;;3.50;2.17;;;;;;;;;;5095479;28;20450;-72
2023/03/29 02:35:55;;;;;;;4.90;2.30;;;;;;;;;;5096152;28;20444;-72
2023/03/29 02:38:25;;;;;;;9.80;3.10;;;;;;;;;;5096568;28;20743;-72
2023/03/29 02:40:56;;;;;;;6.63;2.25;;;;;;;;;;5096516;28;20456;-72
2023/03/29 02:43:25;;;;;;;5.50;2.13;;;;;;;;;;5095906;28;20546;-72
2023/03/29 02:45:53;;;;;;;5.03;2.33;;;;;;;;;;5096100;28;20796;-72
2023/03/29 02:48:22;;;;;;;5.97;2.50;;;;;;;;;;5097215;28;20466;-72
2023/03/29 02:50:52;;;;;;;8.77;2.60;;;;;;;;;;5097907;28;20455;-72
2023/03/29 02:53:21;;;;;;;5.00;2.33;;;;;;;;;;5097479;28;20447;-72
2023/03/29 02:55:49;;;;;;;7.37;2.80;;;;;;;;;;5095409;28;20940;-72
2023/03/29 02:58:17;;;;;;;5.53;2.70;;;;;;;;;;5096429;28;20568;-72
2023/03/29 03:00:46;;;;;;;12.00;3.28;;;;;;;;;;5095777;28;20459;-72
2023/03/29 03:03:14;;;;;;;10.37;3.00;;;;;;;;;;5096046;28;20206;-72
2023/03/29 03:05:43;;;;;;;8.60;3.00;;;;;;;;;;5095704;28;20565;-74
2023/03/29 03:08:12;;;;;;;7.30;2.50;;;;;;;;;;5095063;28;20456;-72
2023/03/29 03:10:40;;;;;;;5.17;2.13;;;;;;;;;;5096930;28;20719;-72
2023/03/29 03:13:07;;;;;;;4.93;2.70;;;;;;;;;;5097023;28;20707;-72
2023/03/29 03:15:41;;;;;;;7.83;3.33;;;;;;;;;;5096394;28;20558;-72
2023/03/29 03:18:14;;;;;;;3.90;2.17;;;;;;;;;;5095323;28;20482;-72
2023/03/29 03:20:45;;;;;;;6.45;3.10;;;;;;;;;;5096712;28;20475;-72
2023/03/29 03:23:14;;;;;;;5.17;1.80;;;;;;;;;;5095356;28;20207;-72
2023/03/29 03:25:41;;;;;;;5.50;2.50;;;;;;;;;;5095858;28;20459;-72
2023/03/29 03:28:11;;;;;;;8.15;2.17;;;;;;;;;;5095577;28;20549;-72
2023/03/29 03:30:38;;;;;;;6.13;2.60;;;;;;;;;;5094963;28;20210;-72
2023/03/29 03:33:06;;;;;;;4.93;2.37;;;;;;;;;;5094234;28;20460;-72
2023/03/29 03:35:34;;;;;;;4.70;2.07;;;;;;;;;;5092274;28;20551;-72
2023/03/29 03:38:01;;;;;;;6.85;2.80;;;;;;;;;;5092715;28;20747;-72
2023/03/29 03:40:31;;;;;;;3.77;2.00;;;;;;;;;;5094315;28;20261;-72
2023/03/29 03:42:58;;;;;;;5.83;2.30;;;;;;;;;;5094487;28;20836;-72
2023/03/29 03:45:26;;;;;;;4.83;2.73;;;;;;;;;;5095334;28;20572;-72
2023/03/29 03:47:56;;;;;;;6.05;2.58;;;;;;;;;;5096336;28;20803;-72
2023/03/29 03:50:24;;;;;;;6.80;2.53;;;;;;;;;;5096465;28;20895;-72
2023/03/29 03:52:51;;;;;;;11.00;2.70;;;;;;;;;;5095102;28;20458;-72
2023/03/29 03:55:19;;;;;;;9.07;2.00;;;;;;;;;;5094233;28;20465;-72
2023/03/29 03:57:47;;;;;;;7.40;2.50;;;;;;;;;;5094722;28;20460;-72
2023/03/29 04:00:19;;;;;;;7.30;2.47;;;;;;;;;;5095810;28;20485;-72
2023/03/29 04:02:46;;;;;;;7.53;2.80;;;;;;;;;;5096803;28;20479;-72
2023/03/29 04:05:15;;;;;;;5.97;2.50;;;;;;;;;;5098194;28;20558;-72
2023/03/29 04:07:42;;;;;;;8.40;3.57;;;;;;;;;;5096915;28;20940;-72
2023/03/29 04:10:14;;;;;;;6.53;2.17;;;;;;;;;;5098523;28;20452;-72
2023/03/29 04:12:41;;;;;;;5.70;2.77;;;;;;;;;;5098287;28;20534;-72
2023/03/29 04:15:10;;;;;;;10.10;2.80;;;;;;;;;;5098050;28;20516;-72
2023/03/29 04:17:38;;;;;;;3.30;2.05;;;;;;;;;;5097767;28;20216;-72
2023/03/29 04:20:19;;;;;;;8.80;3.00;;;;;;;;;;5103787;28;20233;-72
2023/03/29 04:22:46;;;;;;;6.20;3.03;;;;;;;;;;5110520;28;20454;-72
2023/03/29 04:25:14;;;;;;;7.53;2.30;;;;;;;;;;5119778;28;20720;-72
2023/03/29 04:27:41;;;;;;;6.57;2.97;;;;;;;;;;5118569;28;20570;-72
2023/03/29 04:30:26;;;;;;;7.20;2.10;;;;;;;;;;5112871;28;20527;-73
2023/03/29 04:32:54;;;;;;;6.70;2.43;;;;;;;;;;5091514;28;20205;-72
2023/03/29 04:35:22;;;;;;;4.33;2.17;;;;;;;;;;5100905;28;20462;-72
2023/03/29 04:37:51;;;;;;;4.40;2.47;;;;;;;;;;5097101;28;20462;-72
2023/03/29 04:40:19;;;;;;;4.03;2.30;;;;;;;;;;5098628;28;20915;-72
2023/03/29 04:42:47;;;;;;;6.13;2.67;;;;;;;;;;5098526;28;20542;-72
2023/03/29 04:45:17;;;;;;;5.60;2.03;;;;;;;;;;5096771;28;20444;-72
2023/03/29 04:47:49;;;;;;;3.90;1.93;;;;;;;;;;5097733;28;20489;-72
2023/03/29 04:50:33;;;;;;;5.23;2.30;;;;;;;;;;5099925;28;20497;-73
2023/03/29 04:53:06;;;;;;;7.90;2.90;;;;;;;;;;5098552;28;20550;-73
2023/03/29 04:55:33;;;;;;;5.77;2.30;;;;;;;;;;5096149;28;20475;-72
2023/03/29 04:58:01;;;;;;;7.32;2.30;;;;;;;;;;5096456;28;20459;-72
2023/03/29 05:00:30;;;;;;;5.40;2.50;;;;;;;;;;5096889;28;20225;-72
2023/03/29 05:02:57;;;;;;;5.70;2.27;;;;;;;;;;5094593;28;20578;-73
2023/03/29 05:05:25;;;;;;;9.32;2.60;;;;;;;;;;5114627;28;20705;-72
2023/03/29 05:07:53;;;;;;;4.90;2.20;;;;;;;;;;5113702;28;20209;-73
2023/03/29 05:10:27;;;;;;;9.35;2.72;;;;;;;;;;5114552;28;20725;-72
2023/03/29 05:12:55;;;;;;;6.33;2.77;;;;;;;;;;5114345;28;20209;-72
2023/03/29 05:15:22;;;;;;;5.77;2.60;;;;;;;;;;5113721;28;20462;-72
2023/03/29 05:17:51;;;;;;;7.47;3.13;;;;;;;;;;5116817;28;20435;-72
2023/03/29 05:20:18;;;;;;;5.10;3.00;;;;;;;;;;5116040;28;20779;-72
2023/03/29 05:22:45;;;;;;;7.63;2.50;;;;;;;;;;5114838;28;20479;-72
2023/03/29 05:25:13;;;;;;;6.70;2.63;;;;;;;;;;5115861;28;20459;-72
2023/03/29 05:27:41;;;;;;;7.13;2.70;;;;;;;;;;5116873;28;20462;-72
2023/03/29 05:30:14;;;;;;;11.10;2.50;;;;;;;;;;5114979;28;20580;-72
2023/03/29 05:32:41;;;;;;;6.63;2.23;;;;;;;;;;5113168;28;20543;-72
2023/03/29 05:35:10;;;;;;;6.63;2.67;;;;;;;;;;5113365;28;20465;-73
2023/03/29 05:37:38;;;;;;;5.50;3.17;;;;;;;;;;5113518;28;20524;-72
2023/03/29 05:40:15;;;;;;;3.57;1.80;;;;;;;;;;5113960;28;20539;-72
2023/03/29 05:42:42;;;;;;;7.57;2.80;;;;;;;;;;5113428;28;20458;-72
2023/03/29 05:45:10;;;;;;;6.87;2.40;;;;;;;;;;5114016;28;20526;-72
2023/03/29 05:47:38;;;;;;;6.60;2.85;;;;;;;;;;5115962;28;20469;-72
2023/03/29 05:50:21;;;;;;;3.80;2.97;;;;;;;;;;5117483;28;20193;-73
2023/03/29 05:52:48;;;;;;;8.82;2.55;;;;;;;;;;5116120;28;20458;-72
2023/03/29 05:55:16;;;;;;;5.00;2.10;;;;;;;;;;5108606;28;20906;-72
2023/03/29 05:57:44;;;;;;;4.67;2.80;;;;;;;;;;5094101;28;20814;-73
2023/03/29 06:00:22;;;;;;;6.20;3.50;;;;;;;;;;5094774;28;20553;-72
2023/03/29 06:02:49;;;;;;;9.70;2.40;;;;;;;;;;5093321;28;20320;-72
2023/03/29 06:05:19;;;;;;;5.00;2.67;;;;;;;;;;5092294;28;20463;-72
2023/03/29 06:07:47;;;;;;;9.97;2.40;;;;;;;;;;5092878;28;20451;-72
2023/03/29 06:10:19;;;;;;;5.50;2.47;;;;;;;;;;5094362;28;20869;-72
2023/03/29 06:12:52;;;;;;;7.20;2.57;;;;;;;;;;5093711;28;20480;-72
2023/03/29 06:15:20;;;;;;;5.50;2.90;;;;;;;;;;5092236;28;20471;-72
2023/03/29 06:17:48;;;;;;;7.40;2.77;;;;;;;;;;5092835;28;20452;-72
2023/03/29 06:20:17;;;;;;;5.20;2.73;;;;;;;;;;5090990;28;20551;-72
2023/03/29 06:22:47;;;;;;;4.43;2.80;;;;;;;;;;5088275;28;20889;-72
2023/03/29 06:25:18;;;;;;;4.63;2.73;;;;;;;;;;5090546;28;20871;-72
2023/03/29 06:27:46;;;;;;;6.60;3.07;;;;;;;;;;5090687;28;20447;-72
2023/03/29 06:30:14;;;;;;;4.40;2.70;;;;;;;;;;5090492;28;20469;-72
2023/03/29 06:32:42;;;;;;;7.20;2.97;;;;;;;;;;5097669;28;20472;-70
2023/03/29 06:35:10;;;;;;;8.60;2.93;;;;;;;;;;5107654;28;20470;-73
2023/03/29 06:37:41;;;;;;;3.60;2.37;;;;;;;;;;5108839;28;20435;-72
2023/03/29 06:40:14;;;;;;;4.87;3.30;;;;;;;;;;5109052;28;20493;-72
2023/03/29 06:42:56;;;;;;;5.97;3.57;;;;;;;;;;5109701;28;20482;-72
2023/03/29 06:45:25;;;;;;;5.03;3.23;;;;;;;;;;5112956;28;20462;-72
2023/03/29 06:48:03;;;;;;;7.43;3.00;;;;;;;;;;5114645;28;20470;-73
2023/03/29 06:50:30;;;;;;;6.77;2.93;;;;;;;;;;5115829;28;20451;-70
2023/03/29 06:52:58;;;;;;;8.27;3.97;;;;;;;;;;5112637;28;20871;-70
2023/03/29 06:55:27;;;;;;;6.13;3.20;;;;;;;;;;5110864;28;20461;-71
2023/03/29 06:57:55;;;;;;;8.30;3.63;;;;;;;;;;5110375;28;20455;-71
2023/03/29 07:00:28;;;;;;;5.73;2.90;;;;;;;;;;5111238;28;20486;-71
2023/03/29 07:02:56;;;;;;;11.97;3.60;;;;;;;;;;5109891;28;20564;-71
2023/03/29 07:05:26;;;;;;;5.40;2.88;;;;;;;;;;5109199;28;20459;-68
2023/03/29 07:08:09;;;;;;;4.80;3.67;;;;;;;;;;5111081;28;20211;-69
2023/03/29 07:10:50;;;;;;;6.87;2.87;;;;;;;;;;5092256;28;21000;-70
2023/03/29 07:13:25;;;;;;;8.43;3.22;;;;;;;;;;5090259;28;20878;-70
2023/03/29 07:15:54;;;;;;;4.47;2.60;;;;;;;;;;5100779;28;20738;-69
2023/03/29 07:18:38;;;;;;;4.53;2.73;;;;;;;;;;5109990;28;20588;-70
2023/03/29 07:21:16;;;;;;;5.77;2.83;;;;;;;;;;5109581;28;20905;-69
2023/03/29 07:23:44;;;;;;;5.20;3.20;;;;;;;;;;5090362;28;20438;-70
2023/03/29 07:26:19;;;;;;;5.47;3.27;;;;;;;;;;5090808;28;20448;-71
2023/03/29 07:28:50;;;;;;;10.20;3.87;;;;;;;;;;5090206;28;20509;-71
2023/03/29 07:31:28;;;;;;;6.77;3.23;;;;;;;;;;5090739;28;20460;-70
2023/03/29 07:34:09;;;;;;;7.57;3.03;;;;;;;;;;5091431;28;20537;-70
2023/03/29 07:36:42;;;;;;;8.60;2.90;;;;;;;;;;5090935;28;20553;-69
2023/03/29 07:39:12;;;;;;;5.00;3.63;;;;;;;;;;5095697;28;20490;-70
2023/03/29 07:41:42;;;;;;;5.23;2.73;;;;;;;;;;5094841;28;20739;-70
2023/03/29 07:44:09;;;;;;;5.27;3.80;;;;;;;;;;5094348;28;20517;-70
2023/03/29 07:46:38;;;;;;;9.03;4.10;;;;;;;;;;5076753;28;20456;-72
2023/03/29 07:49:07;;;;;;;6.60;4.40;;;;;;;;;;5093258;28;20958;-69
2023/03/29 07:51:35;;;;;;;7.00;3.30;;;;;;;;;;5090816;28;20448;-70
2023/03/29 07:54:04;;;;;;;5.77;3.27;;;;;;;;;;5100351;28;20455;-71
2023/03/29 07:56:31;;;;;;;9.60;4.00;;;;;;;;;;5100730;28;20471;-69
2023/03/29 07:59:02;;;;;;;26.03;4.13;;;;;;;;;;5097216;28;20467;-70
2023/03/29 08:01:29;;;;;;;9.47;3.03;;;;;;;;;;5095567;28;20582;-70
2023/03/29 08:04:00;;;;;;;5.73;3.40;;;;;;;;;;5105225;28;20462;-70
2023/03/29 08:06:34;;;;;;;9.43;3.73;;;;;;;;;;5099125;28;20460;-72
2023/03/29 08:09:02;;;;;;;7.03;2.50;;;;;;;;;;5106082;28;20563;-71
2023/03/29 08:11:33;;;;;;;8.20;3.40;;;;;;;;;;5115005;28;20479;-69
2023/03/29 08:14:03;;;;;;;6.63;3.47;;;;;;;;;;5112076;28;20459;-70
2023/03/29 08:16:32;;;;;;;11.20;3.30;;;;;;;;;;5111359;28;20465;-70
2023/03/29 08:18:59;;;;;;;6.03;2.93;;;;;;;;;;5116736;28;20454;-71
2023/03/29 08:21:28;;;;;;;6.05;3.08;;;;;;;;;;5106437;28;20494;-71
2023/03/29 08:23:56;;;;;;;7.75;3.53;;;;;;;;;;5106440;28;20193;-70
2023/03/29 08:26:24;;;;;;;6.20;3.00;;;;;;;;;;5106094;28;20198;-69
2023/03/29 08:28:51;;;;;;;5.40;2.90;;;;;;;;;;5105732;28;20450;-70
2023/03/29 08:31:21;;;;;;;6.57;3.00;;;;;;;;;;5107306;28;20444;-70
2023/03/29 08:33:49;;;;;;;6.17;3.30;;;;;;;;;;5103136;28;20436;-69
2023/03/29 08:36:16;;;;;;;8.63;3.83;;;;;;;;;;5106097;28;20451;-69
2023/03/29 08:38:46;;;;;;;10.90;3.07;;;;;;;;;;5096017;28;20531;-71
2023/03/29 08:41:29;;;;;;;53.60;29.23;;;;;;;;;;5105105;28;20510;-70
2023/03/29 08:44:03;;;;;;;4.97;2.93;;;;;;;;;;5099772;28;20983;-70
2023/03/29 08:46:36;;;;;;;8.15;3.53;;;;;;;;;;5096052;28;20477;-70
2023/03/29 08:49:05;;;;;;;5.10;3.43;;;;;;;;;;5093207;28;20456;-70
2023/03/29 08:51:36;;;;;;;4.40;2.77;;;;;;;;;;5093765;28;20452;-70
2023/03/29 08:54:07;;;;;;;6.20;3.40;;;;;;;;;;5109608;28;20455;-71
2023/03/29 08:57:00;;;;;;;5.03;3.23;;;;;;;;;;5093741;28;20468;-70
2023/03/29 08:59:47;;;;;;;5.47;3.03;;;;;;;;;;5095158;28;20459;-70
2023/03/29 09:02:18;;;;;;;6.20;3.27;;;;;;;;;;5093893;28;20456;-70
2023/03/29 09:04:49;;;;;;;3.83;2.83;;;;;;;;;;5092534;28;20550;-70
2023/03/29 09:07:20;;;;;;;9.87;3.60;;;;;;;;;;5074825;28;20288;-70
2023/03/29 09:09:52;;;;;;;6.43;3.13;;;;;;;;;;5090926;28;20516;-71
2023/03/29 09:12:27;;;;;;;7.60;3.63;;;;;;;;;;5092686;28;20464;-71
2023/03/29 09:15:05;;;;;;;4.73;3.40;;;;;;;;;;5091807;28;20451;-70
2023/03/29 09:18:02;;;;;;;7.63;3.03;;;;;;;;;;5092022;28;20459;-70
2023/03/29 09:23:39;;;;;;;10.03;3.63;;;;;;;;;;5093215;28;20454;-69
2023/03/29 09:26:19;;;;;;;4.10;3.10;;;;;;;;;;5096380;28;20820;-68
2023/03/29 09:28:56;;;;;;;7.60;3.43;;;;;;;;;;5104876;28;20826;-71
2023/03/29 09:31:27;;;;;;;8.65;4.30;;;;;;;;;;5103280;28;20445;-70
2023/03/29 09:33:58;;;;;;;5.60;3.53;;;;;;;;;;5100401;28;20354;-69
2023/03/29 09:36:30;;;;;;;4.50;2.83;;;;;;;;;;5097920;28;20903;-69
2023/03/29 09:39:00;;;;;;;7.57;3.38;;;;;;;;;;5098099;28;20444;-69
2023/03/29 09:44:49;;;;;;;6.17;3.30;;;;;;;;;;5089771;28;20576;-69
2023/03/29 09:47:30;;;;;;;4.73;3.00;;;;;;;;;;5091266;28;20483;-69
2023/03/29 09:50:17;;;;;;;5.63;3.07;;;;;;;;;;5094696;28;20439;-71
2023/03/29 09:52:46;;;;;;;10.10;4.03;;;;;;;;;;5106804;28;21062;-70
2023/03/29 09:55:18;;;;;;;8.10;3.70;;;;;;;;;;5104075;28;20474;-71
2023/03/29 09:58:08;;;;;;;5.90;3.13;;;;;;;;;;5093227;28;20621;-70
2023/03/29 10:00:59;;;;;;;6.30;3.90;;;;;;;;;;5092745;28;20566;-70
2023/03/29 10:03:40;;;;;;;5.30;2.97;;;;;;;;;;5093477;28;20464;-71
2023/03/29 10:06:25;;;;;;;4.73;3.20;;;;;;;;;;5095416;28;20454;-69
2023/03/29 10:09:13;;;;;;;6.60;3.40;;;;;;;;;;5105370;28;20465;-69
2023/03/29 10:11:46;;;;;;;7.13;3.93;;;;;;;;;;5102246;28;20423;-69
2023/03/29 10:14:15;;;;;;;6.93;3.37;;;;;;;;;;5111828;28;20459;-69
2023/03/29 10:16:46;;;;;;;4.93;3.43;;;;;;;;;;5103801;28;20450;-69
2023/03/29 10:19:33;;;;;;;6.35;3.22;;;;;;;;;;5108938;28;20438;-69
2023/03/29 10:22:15;;;;;;;7.10;3.65;;;;;;;;;;5092219;28;20275;-70
2023/03/29 10:24:58;;;;;;;6.50;4.43;;;;;;;;;;5090588;28;20231;-70
2023/03/29 10:27:27;;;;;;;6.85;4.03;;;;;;;;;;5093364;28;20455;-69
2023/03/29 10:30:03;;;;;;;5.37;4.17;;;;;;;;;;5099159;28;20197;-70
2023/03/29 10:32:39;;;;;;;7.40;3.20;;;;;;;;;;5114141;28;20443;-70
2023/03/29 10:35:10;;;;;;;6.87;4.20;;;;;;;;;;5114323;28;20459;-71
2023/03/29 10:37:40;;;;;;;5.77;3.27;;;;;;;;;;5113462;28;20465;-69
2023/03/29 10:40:20;;;;;;;9.38;3.78;;;;;;;;;;5106673;28;20482;-70
2023/03/29 10:48:59;;;;;;;6.90;4.22;;;;;;;;;;5101982;28;20476;-70
2023/03/29 10:51:36;;;;;;;9.47;3.47;;;;;;;;;;5111687;28;20270;-71
2023/03/29 10:54:19;;;;;;;4.20;2.80;;;;;;;;;;5107854;28;20458;-69
2023/03/29 10:56:50;;;;;;;8.43;5.07;;;;;;;;;;5107378;28;20582;-70
2023/03/29 10:59:33;;;;;;;6.83;3.57;;;;;;;;;;5092832;28;20521;-70
2023/03/29 11:02:18;;;;;;;6.10;3.50;;;;;;;;;;5091226;28;20918;-71
2023/03/29 11:04:47;;;;;;;4.90;3.50;;;;;;;;;;5060530;28;20542;-70
2023/03/29 11:07:30;;;;;;;5.00;3.33;;;;;;;;;;5092736;28;20531;-71
2023/03/29 11:10:12;;;;;;;5.40;3.63;;;;;;;;;;5109028;28;20451;-71
2023/03/29 11:12:51;;;;;;;3.70;2.60;;;;;;;;;;5104887;28;20469;-71
2023/03/29 11:15:40;;;;;;;5.67;3.20;;;;;;;;;;5100604;28;20805;-71
2023/03/29 11:18:26;;;;;;;7.33;4.00;;;;;;;;;;5106324;28;20520;-70
2023/03/29 11:21:01;;;;;;;5.83;2.37;;;;;;;;;;5110237;28;20637;-70
2023/03/29 11:23:41;;;;;;;6.07;3.20;;;;;;;;;;5111675;28;20446;-70
2023/03/29 11:26:13;;;;;;;6.93;3.07;;;;;;;;;;5111515;28;20462;-70
2023/03/29 11:28:45;;;;;;;3.73;2.50;;;;;;;;;;5111630;28;20451;-70
2023/03/29 11:31:19;;;;;;;8.23;3.53;;;;;;;;;;5111794;28;20462;-70
2023/03/29 11:33:55;;;;;;;10.97;5.33;;;;;;;;;;5112594;28;20894;-70
2023/03/29 11:36:40;;;;;;;5.37;3.10;;;;;;;;;;5113131;28;20504;-69
2023/03/29 11:39:17;;;;;;;8.53;3.37;;;;;;;;;;5112319;28;20458;-69
2023/03/29 11:41:47;;;;;;;5.80;3.50;;;;;;;;;;5108105;28;20558;-69
2023/03/29 11:44:19;;;;;;;6.83;3.33;;;;;;;;;;5109567;28;20543;-70
2023/03/29 11:46:48;;;;;;;5.83;3.37;;;;;;;;;;5102769;28;20464;-69
2023/03/29 11:49:20;;;;;;;5.32;2.95;;;;;;;;;;5092974;28;20490;-71
2023/03/29 11:51:50;;;;;;;5.50;3.28;;;;;;;;;;5101629;28;20198;-70
2023/03/29 11:54:26;;;;;;;5.57;3.60;;;;;;;;;;5097289;28;20266;-71
2023/03/29 11:56:56;;;;;;;7.80;3.60;;;;;;;;;;5090249;28;20443;-70
2023/03/29 11:59:29;;;;;;;6.07;3.47;;;;;;;;;;5090783;28;20455;-69
2023/03/29 12:02:00;;;;;;;8.50;3.30;;;;;;;;;;5092586;28;20492;-71
2023/03/29 12:04:37;;;;;;;5.07;2.70;;;;;;;;;;5090504;28;20875;-70
2023/03/29 12:07:17;;;;;;;4.65;2.90;;;;;;;;;;5090117;28;20466;-71
2023/03/29 12:10:15;;;;;;;5.38;3.50;;;;;;;;;;5092681;28;20300;-72
2023/03/29 12:12:48;;;;;;;3.20;2.30;;;;;;;;;;5112170;28;20646;-71
2023/03/29 12:15:55;;;;;;;3.67;2.43;;;;;;;;;;5111393;28;20899;-71
2023/03/29 12:18:31;;;;;;;8.67;3.83;;;;;;;;;;5090474;28;20551;-70
2023/03/29 12:21:15;;;;;;;5.07;3.20;;;;;;;;;;5089614;28;20458;-71
2023/03/29 12:23:47;;;;;;;6.57;3.37;;;;;;;;;;5091344;28;20527;-72
2023/03/29 12:26:24;;;;;;;5.87;3.90;;;;;;;;;;5109626;28;20506;-71
2023/03/29 12:29:09;;;;;;;9.20;3.60;;;;;;;;;;5099474;28;21088;-72
2023/03/29 12:31:49;;;;;;;7.10;3.35;;;;;;;;;;5090853;28;20458;-70
2023/03/29 12:34:32;;;;;;;5.47;3.40;;;;;;;;;;5109686;28;20205;-69
2023/03/29 12:37:11;;;;;;;5.83;4.10;;;;;;;;;;5106706;28;20569;-70
2023/03/29 12:39:49;;;;;;;5.70;3.10;;;;;;;;;;5110641;28;20456;-70
2023/03/29 12:42:22;;;;;;;7.20;3.57;;;;;;;;;;5113322;28;20719;-71
2023/03/29 12:44:52;;;;;;;6.63;4.55;;;;;;;;;;5067772;28;20508;-71
2023/03/29 12:47:29;;;;;;;6.47;3.60;;;;;;;;;;5046455;28;20203;-70
2023/03/29 12:49:59;;;;;;;4.13;3.27;;;;;;;;;;5032601;28;20526;-72
2023/03/29 12:52:53;;;;;;;;;;;;;;;;;;;;;
2023/03/29 12:55:25;;;;;;;7.87;3.10;;;;;;;;;;5028192;28;20858;-70
2023/03/29 12:58:03;;;;;;;5.50;3.30;;;;;;;;;;5029461;28;20502;-70
2023/03/29 13:00:46;;;;;;;3.90;2.80;;;;;;;;;;5030160;28;20457;-70
2023/03/29 13:03:52;;;;;;;5.57;2.97;;;;;;;;;;5028985;28;20482;-71
2023/03/29 13:14:41;;;;;;;4.60;3.50;;;;;;;;;;5066108;28;20284;-71
2023/03/29 13:17:20;;;;;;;4.93;3.80;;;;;;;;;;5032940;28;20261;-71
2023/03/29 13:25:33;;;;;;;7.60;4.27;;;;;;;;;;5059068;28;20452;-70
2023/03/29 13:31:42;;;;;;;5.80;3.20;;;;;;;;;;5072058;28;20706;-71
2023/03/29 13:34:34;;;;;;;4.87;3.30;;;;;;;;;;4989495;28;20463;-71
2023/03/29 13:37:19;;;;;;;8.33;5.00;;;;;;;;;;5054849;28;20462;-69
2023/03/29 13:42:44;;;;;;;7.60;4.40;;;;;;;;;;5069922;28;20484;-70
2023/03/29 13:45:23;;;;;;;10.10;4.43;;;;;;;;;;5072140;28;20547;-71
2023/03/29 13:47:50;;;;;;;6.00;3.60;;;;;;;;;;5063532;28;20436;-71
2023/03/29 13:50:22;;;;;;;6.30;3.80;;;;;;;;;;5062985;28;20471;-70
2023/03/29 13:53:06;;;;;;;4.90;3.97;;;;;;;;;;5059877;28;20530;-70
2023/03/29 13:55:42;;;;;;;5.70;4.07;;;;;;;;;;5060631;28;20480;-70
2023/03/29 13:58:16;;;;;;;6.23;3.60;;;;;;;;;;5051549;28;20716;-72
2023/03/29 14:00:47;;;;;;;5.30;3.70;;;;;;;;;;5050917;28;20569;-71
2023/03/29 14:03:16;;;;;;;7.60;4.23;;;;;;;;;;5050890;28;20480;-72
2023/03/29 14:06:08;;;;;;;7.53;5.07;;;;;;;;;;5059972;28;20586;-69
2023/03/29 14:09:18;;;;;;;7.70;4.77;;;;;;;;;;5064720;28;20543;-70
2023/03/29 14:11:51;;;;;;;7.50;5.13;;;;;;;;;;5061121;28;20876;-71
2023/03/29 14:17:24;;;;;;;7.17;4.50;;;;;;;;;;5065056;28;20285;-70
2023/03/29 14:20:13;;;;;;;7.00;4.10;;;;;;;;;;5069862;28;21121;-72
2023/03/29 14:22:57;;;;;;;7.90;4.73;;;;;;;;;;5070363;28;20510;-71
2023/03/29 14:25:43;;;;;;;6.30;4.50;;;;;;;;;;5071056;28;20505;-71
2023/03/29 14:28:45;;;;;;;5.40;3.70;;;;;;;;;;5068042;28;20544;-71
2023/03/29 14:31:22;;;;;;;6.43;5.37;;;;;;;;;;5054309;28;20467;-71
2023/03/29 14:33:53;;;;;;;8.95;4.60;;;;;;;;;;5064822;28;20453;-70
2023/03/29 14:36:34;;;;;;;10.00;5.50;;;;;;;;;;5046074;28;20290;-70
2023/03/29 14:48:02;;;;;;;7.47;5.07;;;;;;;;;;5040799;28;20534;-71
2023/03/29 14:50:49;;;;;;;8.30;5.68;;;;;;;;;;5050433;28;20449;-71
2023/03/29 14:53:19;;;;;;;7.10;4.80;;;;;;;;;;5049697;28;20900;-70
2023/03/29 14:55:50;;;;;;;6.03;4.90;;;;;;;;;;5047972;28;20496;-71
2023/03/29 14:58:35;;;;;;;8.47;5.30;;;;;;;;;;5063337;28;20451;-71
2023/03/29 15:01:22;;;;;;;7.87;5.90;;;;;;;;;;5055973;28;20484;-70
2023/03/29 15:03:54;;;;;;;6.20;4.63;;;;;;;;;;5063600;28;20484;-70
2023/03/29 15:06:52;;;;;;;7.53;6.33;;;;;;;;;;5062740;28;20457;-70
2023/03/29 15:12:17;;;;;;;12.00;7.20;;;;;;;;;;5058644;28;20453;-71
2023/03/29 15:14:51;;;;;;;6.97;5.30;;;;;;;;;;5062807;28;21045;-70
2023/03/29 15:17:39;;;;;;;7.60;5.30;;;;;;;;;;5069837;28;20840;-70
2023/03/29 15:39:05;;;;;;;10.23;5.77;;;;;;;;;;5070350;28;20459;-72
2023/03/29 15:47:47;;;;;;;13.00;7.60;;;;;;;;;;5037490;28;20445;-72
2023/03/29 15:50:20;;;;;;;11.17;5.77;;;;;;;;;;5069177;28;20478;-71
2023/03/29 15:52:58;;;;;;;7.60;5.40;;;;;;;;;;5069848;28;20444;-71
2023/03/29 15:55:37;;;;;;;8.23;5.88;;;;;;;;;;5070945;28;20472;-72
2023/03/29 15:58:23;;;;;;;7.45;5.65;;;;;;;;;;5068117;28;20202;-71
2023/03/29 16:03:44;;;;;;;6.07;4.87;;;;;;;;;;5071384;28;20479;-70
2023/03/29 16:06:15;;;;;;;8.10;5.47;;;;;;;;;;5071150;28;20509;-70
2023/03/29 16:08:43;;;;;;;6.32;4.57;;;;;;;;;;5069193;28;20495;-69
2023/03/29 16:11:15;;;;;;;15.40;10.30;;;;;;;;;;5070766;28;20203;-70
2023/03/29 16:14:00;;;;;;;8.93;6.27;;;;;;;;;;5064346;28;20931;-71
2023/03/29 16:16:29;;;;;;;9.23;7.10;;;;;;;;;;5055040;28;20506;-71
2023/03/29 16:19:03;;;;;;;10.50;7.20;;;;;;;;;;5063769;28;20437;-70
2023/03/29 16:21:37;;;;;;;9.90;6.10;;;;;;;;;;5062113;28;20461;-71
2023/03/29 16:24:07;;;;;;;11.10;6.03;;;;;;;;;;5048817;28;20890;-70
2023/03/29 16:26:35;;;;;;;8.43;5.33;;;;;;;;;;5061141;28;20876;-71
2023/03/29 16:29:15;;;;;;;7.70;5.37;;;;;;;;;;5061627;28;20644;-70
2023/03/29 16:31:45;;;;;;;11.10;6.45;;;;;;;;;;5070761;28;20654;-71
2023/03/29 16:34:17;;;;;;;10.90;5.43;;;;;;;;;;5063683;28;20195;-71